sensor_id;sensor_type;location;lat;lon;timestamp;pressure;altitude;pressure_sealevel;temperature;humidity
59391;BME280;53405;57.012;40.984;2023-04-08T00:01:44;101471.84;;;1.15;51.62
59391;BME280;53405;57.012;40.984;2023-04-08T00:04:11;101507.91;;;1.37;51.91
59391;BME280;53405;57.012;40.984;2023-04-08T00:06:40;101510.34;;;1.40;51.97
59391;BME280;53405;57.012;40.984;2023-04-08T00:09:07;101506.00;;;1.40;51.78
59391;BME280;53405;57.012;40.984;2023-04-08T00:11:34;101508.59;;;1.40;52.14
59391;BME280;53405;57.012;40.984;2023-04-08T00:14:02;101509.59;;;1.38;52.36
59391;BME280;53405;57.012;40.984;2023-04-08T00:16:30;101506.25;;;1.36;52.32
59391;BME280;53405;57.012;40.984;2023-04-08T00:18:57;101508.59;;;1.40;52.57
59391;BME280;53405;57.012;40.984;2023-04-08T00:21:24;101502.47;;;1.41;52.34
59391;BME280;53405;57.012;40.984;2023-04-08T00:23:52;101503.72;;;1.34;52.24
59391;BME280;53405;57.012;40.984;2023-04-08T00:26:20;101519.22;;;1.36;52.49
59391;BME280;53405;57.012;40.984;2023-04-08T00:28:48;101516.16;;;1.27;52.66
59391;BME280;53405;57.012;40.984;2023-04-08T00:31:15;101508.88;;;1.18;53.04
59391;BME280;53405;57.012;40.984;2023-04-08T00:33:42;101513.97;;;1.20;53.82
59391;BME280;53405;57.012;40.984;2023-04-08T00:36:09;101494.53;;;1.11;53.18
59391;BME280;53405;57.012;40.984;2023-04-08T00:38:36;101507.63;;;1.25;53.06
59391;BME280;53405;57.012;40.984;2023-04-08T00:41:04;101512.31;;;1.19;53.15
59391;BME280;53405;57.012;40.984;2023-04-08T00:43:31;101510.19;;;1.10;53.55
59391;BME280;53405;57.012;40.984;2023-04-08T00:45:58;101509.06;;;0.98;54.02
59391;BME280;53405;57.012;40.984;2023-04-08T00:48:26;101509.47;;;0.90;54.37
59391;BME280;53405;57.012;40.984;2023-04-08T00:50:53;101477.50;;;0.72;54.57
59391;BME280;53405;57.012;40.984;2023-04-08T00:53:21;101498.63;;;0.82;54.67
59391;BME280;53405;57.012;40.984;2023-04-08T00:55:48;101506.31;;;0.83;54.58
59391;BME280;53405;57.012;40.984;2023-04-08T00:58:16;101514.41;;;0.77;54.91
59391;BME280;53405;57.012;40.984;2023-04-08T01:00:50;101517.00;;;0.77;55.37
59391;BME280;53405;57.012;40.984;2023-04-08T01:03:49;101508.94;;;0.66;55.16
59391;BME280;53405;57.012;40.984;2023-04-08T01:06:27;101511.91;;;0.58;55.37
59391;BME280;53405;57.012;40.984;2023-04-08T01:08:59;101498.72;;;0.45;55.50
59391;BME280;53405;57.012;40.984;2023-04-08T01:11:28;101509.53;;;0.53;55.65
59391;BME280;53405;57.012;40.984;2023-04-08T01:13:59;101514.78;;;0.52;55.78
59391;BME280;53405;57.012;40.984;2023-04-08T01:16:28;101516.41;;;0.54;56.22
59391;BME280;53405;57.012;40.984;2023-04-08T01:18:55;101507.66;;;0.57;56.42
59391;BME280;53405;57.012;40.984;2023-04-08T01:21:23;101495.91;;;0.50;56.22
59391;BME280;53405;57.012;40.984;2023-04-08T01:26:28;101498.88;;;0.60;56.69
59391;BME280;53405;57.012;40.984;2023-04-08T01:28:58;101511.00;;;0.59;56.08
59391;BME280;53405;57.012;40.984;2023-04-08T01:31:27;101509.88;;;0.47;56.39
59391;BME280;53405;57.012;40.984;2023-04-08T01:33:56;101515.34;;;0.41;56.74
59391;BME280;53405;57.012;40.984;2023-04-08T01:36:25;101513.66;;;0.40;56.78
59391;BME280;53405;57.012;40.984;2023-04-08T01:38:55;101469.06;;;0.16;57.17
59391;BME280;53405;57.012;40.984;2023-04-08T01:41:22;101511.00;;;0.42;57.15
59391;BME280;53405;57.012;40.984;2023-04-08T01:43:50;101508.78;;;0.34;57.18
59391;BME280;53405;57.012;40.984;2023-04-08T01:46:19;101498.25;;;0.20;57.16
59391;BME280;53405;57.012;40.984;2023-04-08T01:48:48;101507.63;;;0.22;57.34
59391;BME280;53405;57.012;40.984;2023-04-08T01:51:16;101512.75;;;0.24;57.83
59391;BME280;53405;57.012;40.984;2023-04-08T01:53:44;101506.31;;;0.13;57.63
59391;BME280;53405;57.012;40.984;2023-04-08T01:56:12;101500.44;;;0.10;58.08
59391;BME280;53405;57.012;40.984;2023-04-08T01:58:45;101520.00;;;0.15;57.96
59391;BME280;53405;57.012;40.984;2023-04-08T02:01:19;101510.59;;;0.14;57.97
59391;BME280;53405;57.012;40.984;2023-04-08T02:03:50;101521.78;;;0.15;58.32
59391;BME280;53405;57.012;40.984;2023-04-08T02:06:19;101515.13;;;0.09;58.36
59391;BME280;53405;57.012;40.984;2023-04-08T02:08:46;101489.81;;;-0.03;58.36
59391;BME280;53405;57.012;40.984;2023-04-08T02:11:13;101507.50;;;0.06;58.29
59391;BME280;53405;57.012;40.984;2023-04-08T02:13:40;101480.31;;;-0.22;58.56
59391;BME280;53405;57.012;40.984;2023-04-08T02:19:08;101506.13;;;-0.01;58.63
59391;BME280;53405;57.012;40.984;2023-04-08T02:21:46;101509.69;;;-0.04;58.73
59391;BME280;53405;57.012;40.984;2023-04-08T02:24:16;101509.53;;;-0.01;58.97
59391;BME280;53405;57.012;40.984;2023-04-08T02:26:44;101506.06;;;0.01;58.85
59391;BME280;53405;57.012;40.984;2023-04-08T02:29:14;101511.22;;;0.01;58.80
59391;BME280;53405;57.012;40.984;2023-04-08T02:31:43;101512.22;;;-0.02;58.94
59391;BME280;53405;57.012;40.984;2023-04-08T02:34:14;101511.38;;;-0.03;58.91
59391;BME280;53405;57.012;40.984;2023-04-08T02:36:42;101519.97;;;-0.02;59.22
59391;BME280;53405;57.012;40.984;2023-04-08T02:39:12;101518.16;;;0.00;59.03
59391;BME280;53405;57.012;40.984;2023-04-08T02:41:39;101509.97;;;-0.10;58.94
59391;BME280;53405;57.012;40.984;2023-04-08T02:44:08;101519.84;;;0.01;59.19
59391;BME280;53405;57.012;40.984;2023-04-08T02:46:39;101523.34;;;0.00;59.26
59391;BME280;53405;57.012;40.984;2023-04-08T02:49:06;101514.78;;;-0.02;59.07
59391;BME280;53405;57.012;40.984;2023-04-08T02:51:33;101524.78;;;0.06;59.11
59391;BME280;53405;57.012;40.984;2023-04-08T02:54:01;101519.53;;;0.07;58.97
59391;BME280;53405;57.012;40.984;2023-04-08T02:56:28;101526.41;;;0.08;58.90
59391;BME280;53405;57.012;40.984;2023-04-08T02:58:55;101516.13;;;0.07;58.92
59391;BME280;53405;57.012;40.984;2023-04-08T03:01:23;101528.88;;;0.11;58.83
59391;BME280;53405;57.012;40.984;2023-04-08T03:03:50;101525.06;;;0.18;58.65
59391;BME280;53405;57.012;40.984;2023-04-08T03:06:17;101527.88;;;0.31;58.02
59391;BME280;53405;57.012;40.984;2023-04-08T03:08:45;101531.94;;;0.37;58.27
59391;BME280;53405;57.012;40.984;2023-04-08T03:11:12;101534.31;;;0.42;57.54
59391;BME280;53405;57.012;40.984;2023-04-08T03:13:39;101534.94;;;0.47;57.29
59391;BME280;53405;57.012;40.984;2023-04-08T03:16:06;101507.72;;;0.38;57.14
59391;BME280;53405;57.012;40.984;2023-04-08T03:18:34;101545.97;;;0.50;57.37
59391;BME280;53405;57.012;40.984;2023-04-08T03:21:02;101537.22;;;0.53;57.19
59391;BME280;53405;57.012;40.984;2023-04-08T03:23:29;101532.56;;;0.60;56.98
59391;BME280;53405;57.012;40.984;2023-04-08T03:25:56;101532.41;;;0.63;56.92
59391;BME280;53405;57.012;40.984;2023-04-08T03:28:24;101541.81;;;0.65;56.73
59391;BME280;53405;57.012;40.984;2023-04-08T03:30:51;101532.03;;;0.70;56.63
59391;BME280;53405;57.012;40.984;2023-04-08T03:33:18;101538.69;;;0.76;56.61
59391;BME280;53405;57.012;40.984;2023-04-08T03:35:45;101495.66;;;0.54;56.23
59391;BME280;53405;57.012;40.984;2023-04-08T03:38:13;101541.72;;;0.84;56.05
59391;BME280;53405;57.012;40.984;2023-04-08T03:40:40;101544.16;;;0.87;56.11
59391;BME280;53405;57.012;40.984;2023-04-08T03:43:07;101541.28;;;0.94;55.67
59391;BME280;53405;57.012;40.984;2023-04-08T03:45:34;101538.53;;;0.97;55.76
59391;BME280;53405;57.012;40.984;2023-04-08T03:48:02;101537.28;;;1.04;55.27
59391;BME280;53405;57.012;40.984;2023-04-08T03:50:29;101537.91;;;1.09;55.37
59391;BME280;53405;57.012;40.984;2023-04-08T03:52:57;101539.41;;;1.13;55.12
59391;BME280;53405;57.012;40.984;2023-04-08T03:55:24;101544.34;;;1.18;55.13
59391;BME280;53405;57.012;40.984;2023-04-08T03:57:51;101546.63;;;1.24;55.12
59391;BME280;53405;57.012;40.984;2023-04-08T04:00:18;101535.50;;;1.22;54.84
59391;BME280;53405;57.012;40.984;2023-04-08T04:02:45;101510.34;;;1.06;54.98
59391;BME280;53405;57.012;40.984;2023-04-08T04:05:13;101539.44;;;1.29;54.71
59391;BME280;53405;57.012;40.984;2023-04-08T04:07:40;101551.13;;;1.38;54.73
59391;BME280;53405;57.012;40.984;2023-04-08T04:10:07;101543.16;;;1.41;54.61
59391;BME280;53405;57.012;40.984;2023-04-08T04:12:36;101542.25;;;1.42;54.44
59391;BME280;53405;57.012;40.984;2023-04-08T04:15:04;101543.25;;;1.39;54.32
59391;BME280;53405;57.012;40.984;2023-04-08T04:17:31;101552.31;;;1.48;54.45
59391;BME280;53405;57.012;40.984;2023-04-08T04:19:58;101553.66;;;1.55;54.26
59391;BME280;53405;57.012;40.984;2023-04-08T04:22:26;101540.19;;;1.65;54.25
59391;BME280;53405;57.012;40.984;2023-04-08T04:24:53;101548.41;;;1.73;53.82
59391;BME280;53405;57.012;40.984;2023-04-08T04:27:20;101553.03;;;1.84;54.02
59391;BME280;53405;57.012;40.984;2023-04-08T04:29:47;101541.28;;;1.92;53.68
59391;BME280;53405;57.012;40.984;2023-04-08T04:32:15;101544.06;;;2.05;53.48
59391;BME280;53405;57.012;40.984;2023-04-08T04:34:43;101553.84;;;2.16;52.75
59391;BME280;53405;57.012;40.984;2023-04-08T04:37:10;101548.31;;;2.22;52.13
59391;BME280;53405;57.012;40.984;2023-04-08T04:39:37;101544.09;;;2.35;51.96
59391;BME280;53405;57.012;40.984;2023-04-08T04:42:05;101550.00;;;2.53;52.46
59391;BME280;53405;57.012;40.984;2023-04-08T04:44:32;101556.22;;;2.67;51.47
59391;BME280;53405;57.012;40.984;2023-04-08T04:46:59;101551.13;;;2.80;51.06
59391;BME280;53405;57.012;40.984;2023-04-08T04:49:26;101558.22;;;2.92;50.19
59391;BME280;53405;57.012;40.984;2023-04-08T04:51:53;101552.84;;;2.95;49.33
59391;BME280;53405;57.012;40.984;2023-04-08T04:54:21;101551.72;;;2.99;49.56
59391;BME280;53405;57.012;40.984;2023-04-08T04:56:48;101551.94;;;3.11;49.71
59391;BME280;53405;57.012;40.984;2023-04-08T04:59:15;101546.94;;;3.22;49.01
59391;BME280;53405;57.012;40.984;2023-04-08T05:01:42;101556.03;;;3.29;48.67
59391;BME280;53405;57.012;40.984;2023-04-08T05:04:10;101555.47;;;3.38;48.36
59391;BME280;53405;57.012;40.984;2023-04-08T05:06:37;101559.75;;;3.39;48.64
59391;BME280;53405;57.012;40.984;2023-04-08T05:09:04;101525.22;;;3.36;48.70
59391;BME280;53405;57.012;40.984;2023-04-08T05:11:31;101553.53;;;3.56;48.89
59391;BME280;53405;57.012;40.984;2023-04-08T05:13:59;101562.44;;;3.67;46.57
59391;BME280;53405;57.012;40.984;2023-04-08T05:16:26;101554.25;;;3.73;47.42
59391;BME280;53405;57.012;40.984;2023-04-08T05:18:53;101556.91;;;3.86;47.93
59391;BME280;53405;57.012;40.984;2023-04-08T05:21:20;101552.44;;;3.88;47.96
59391;BME280;53405;57.012;40.984;2023-04-08T05:23:48;101557.94;;;3.97;47.55
59391;BME280;53405;57.012;40.984;2023-04-08T05:26:17;101497.00;;;3.71;46.64
59391;BME280;53405;57.012;40.984;2023-04-08T05:28:46;101517.34;;;3.93;46.89
59391;BME280;53405;57.012;40.984;2023-04-08T05:31:18;101554.41;;;4.26;45.98
59391;BME280;53405;57.012;40.984;2023-04-08T05:33:46;101525.22;;;4.06;46.00
59391;BME280;53405;57.012;40.984;2023-04-08T05:36:17;101557.06;;;4.39;45.64
59391;BME280;53405;57.012;40.984;2023-04-08T05:38:46;101556.00;;;4.41;45.31
59391;BME280;53405;57.012;40.984;2023-04-08T05:41:13;101561.16;;;4.56;47.75
59391;BME280;53405;57.012;40.984;2023-04-08T05:43:40;101559.66;;;4.79;48.72
59391;BME280;53405;57.012;40.984;2023-04-08T05:46:09;101554.53;;;4.90;45.54
59391;BME280;53405;57.012;40.984;2023-04-08T05:48:36;101571.91;;;5.17;45.85
59391;BME280;53405;57.012;40.984;2023-04-08T05:51:03;101559.59;;;5.19;44.20
59391;BME280;53405;57.012;40.984;2023-04-08T05:53:31;101549.75;;;5.22;44.32
59391;BME280;53405;57.012;40.984;2023-04-08T05:55:58;101558.41;;;5.36;44.96
59391;BME280;53405;57.012;40.984;2023-04-08T05:58:25;101552.34;;;5.48;42.92
59391;BME280;53405;57.012;40.984;2023-04-08T06:00:52;101550.50;;;5.50;45.91
59391;BME280;53405;57.012;40.984;2023-04-08T06:03:21;101561.75;;;5.51;43.44
59391;BME280;53405;57.012;40.984;2023-04-08T06:05:48;101559.75;;;5.54;43.35
59391;BME280;53405;57.012;40.984;2023-04-08T06:08:15;101566.34;;;5.60;43.32
59391;BME280;53405;57.012;40.984;2023-04-08T06:10:49;101557.34;;;5.64;43.67
59391;BME280;53405;57.012;40.984;2023-04-08T06:13:17;101555.66;;;5.76;42.85
59391;BME280;53405;57.012;40.984;2023-04-08T06:15:46;101561.81;;;5.75;42.78
59391;BME280;53405;57.012;40.984;2023-04-08T06:18:16;101563.06;;;5.82;42.82
59391;BME280;53405;57.012;40.984;2023-04-08T06:20:43;101553.31;;;5.97;43.36
59391;BME280;53405;57.012;40.984;2023-04-08T06:23:10;101538.66;;;6.07;42.45
59391;BME280;53405;57.012;40.984;2023-04-08T06:25:38;101556.03;;;6.32;41.35
59391;BME280;53405;57.012;40.984;2023-04-08T06:28:05;101551.56;;;6.57;45.08
59391;BME280;53405;57.012;40.984;2023-04-08T06:30:33;101561.28;;;6.79;40.38
59391;BME280;53405;57.012;40.984;2023-04-08T06:33:00;101538.13;;;6.86;39.55
59391;BME280;53405;57.012;40.984;2023-04-08T06:35:28;101553.97;;;7.07;39.40
59391;BME280;53405;57.012;40.984;2023-04-08T06:37:55;101554.56;;;7.11;40.66
59391;BME280;53405;57.012;40.984;2023-04-08T06:40:22;101562.44;;;7.22;39.58
59391;BME280;53405;57.012;40.984;2023-04-08T06:42:49;101552.09;;;7.32;37.91
59391;BME280;53405;57.012;40.984;2023-04-08T06:45:26;101519.81;;;7.20;37.59
59391;BME280;53405;57.012;40.984;2023-04-08T06:47:54;101555.56;;;7.32;37.49
59391;BME280;53405;57.012;40.984;2023-04-08T06:50:22;101564.47;;;7.30;35.57
59391;BME280;53405;57.012;40.984;2023-04-08T06:52:49;101561.72;;;7.31;35.93
59391;BME280;53405;57.012;40.984;2023-04-08T06:55:17;101526.38;;;7.26;34.97
59391;BME280;53405;57.012;40.984;2023-04-08T06:57:44;101554.84;;;7.53;34.69
59391;BME280;53405;57.012;40.984;2023-04-08T07:00:12;101542.06;;;7.59;34.60
59391;BME280;53405;57.012;40.984;2023-04-08T07:02:39;101551.94;;;7.90;38.63
59391;BME280;53405;57.012;40.984;2023-04-08T07:05:06;101555.59;;;7.99;34.63
59391;BME280;53405;57.012;40.984;2023-04-08T07:07:33;101553.47;;;7.92;33.55
59391;BME280;53405;57.012;40.984;2023-04-08T07:10:01;101554.81;;;7.75;33.98
59391;BME280;53405;57.012;40.984;2023-04-08T07:12:29;101558.38;;;7.86;35.60
59391;BME280;53405;57.012;40.984;2023-04-08T07:14:56;101547.53;;;7.90;33.84
59391;BME280;53405;57.012;40.984;2023-04-08T07:17:23;101555.03;;;7.95;33.24
59391;BME280;53405;57.012;40.984;2023-04-08T07:19:51;101523.75;;;8.03;36.44
59391;BME280;53405;57.012;40.984;2023-04-08T07:22:18;101544.78;;;8.24;32.92
59391;BME280;53405;57.012;40.984;2023-04-08T07:24:45;101540.16;;;8.28;32.30
59391;BME280;53405;57.012;40.984;2023-04-08T07:27:15;101463.13;;;7.85;31.35
59391;BME280;53405;57.012;40.984;2023-04-08T07:29:43;101533.66;;;8.43;32.98
59391;BME280;53405;57.012;40.984;2023-04-08T07:32:10;101540.19;;;8.49;31.30
59391;BME280;53405;57.012;40.984;2023-04-08T07:34:37;101545.00;;;8.44;31.31
59391;BME280;53405;57.012;40.984;2023-04-08T07:37:05;101513.28;;;8.24;31.77
59391;BME280;53405;57.012;40.984;2023-04-08T07:39:32;101543.44;;;8.41;30.15
59391;BME280;53405;57.012;40.984;2023-04-08T07:41:59;101539.63;;;8.66;31.65
59391;BME280;53405;57.012;40.984;2023-04-08T07:44:27;101539.75;;;8.86;30.46
59391;BME280;53405;57.012;40.984;2023-04-08T07:46:54;101535.44;;;8.75;29.74
59391;BME280;53405;57.012;40.984;2023-04-08T07:49:21;101546.81;;;8.85;31.70
59391;BME280;53405;57.012;40.984;2023-04-08T07:51:48;101535.03;;;8.80;29.54
59391;BME280;53405;57.012;40.984;2023-04-08T07:54:16;101549.44;;;8.85;29.88
59391;BME280;53405;57.012;40.984;2023-04-08T07:56:44;101535.22;;;8.88;29.59
59391;BME280;53405;57.012;40.984;2023-04-08T07:59:11;101537.09;;;8.97;29.50
59391;BME280;53405;57.012;40.984;2023-04-08T08:01:38;101539.38;;;8.91;31.48
59391;BME280;53405;57.012;40.984;2023-04-08T08:04:05;101542.69;;;9.14;30.58
59391;BME280;53405;57.012;40.984;2023-04-08T08:06:32;101539.31;;;9.33;29.39
59391;BME280;53405;57.012;40.984;2023-04-08T08:09:00;101531.34;;;9.44;32.10
59391;BME280;53405;57.012;40.984;2023-04-08T08:11:27;101542.34;;;9.69;28.75
59391;BME280;53405;57.012;40.984;2023-04-08T08:13:55;101536.97;;;9.70;28.78
59391;BME280;53405;57.012;40.984;2023-04-08T08:16:23;101544.31;;;9.76;28.38
59391;BME280;53405;57.012;40.984;2023-04-08T08:19:01;101546.94;;;9.76;28.15
59391;BME280;53405;57.012;40.984;2023-04-08T08:21:45;101541.00;;;9.84;28.95
59391;BME280;53405;57.012;40.984;2023-04-08T08:24:13;101534.41;;;10.29;28.57
59391;BME280;53405;57.012;40.984;2023-04-08T08:26:40;101538.69;;;10.89;27.54
59391;BME280;53405;57.012;40.984;2023-04-08T08:29:07;101529.88;;;11.08;26.80
59391;BME280;53405;57.012;40.984;2023-04-08T08:31:34;101536.31;;;11.33;27.17
59391;BME280;53405;57.012;40.984;2023-04-08T08:34:02;101532.97;;;11.41;27.35
59391;BME280;53405;57.012;40.984;2023-04-08T08:36:29;101518.09;;;11.39;28.90
59391;BME280;53405;57.012;40.984;2023-04-08T08:38:58;101525.28;;;11.75;26.04
59391;BME280;53405;57.012;40.984;2023-04-08T08:41:25;101528.22;;;11.72;26.20
59391;BME280;53405;57.012;40.984;2023-04-08T08:43:52;101520.06;;;11.37;27.27
59391;BME280;53405;57.012;40.984;2023-04-08T08:46:20;101512.25;;;11.46;27.09
59391;BME280;53405;57.012;40.984;2023-04-08T08:48:48;101516.81;;;11.16;27.35
59391;BME280;53405;57.012;40.984;2023-04-08T08:51:16;101519.25;;;10.99;27.57
59391;BME280;53405;57.012;40.984;2023-04-08T08:53:43;101507.75;;;11.28;27.62
59391;BME280;53405;57.012;40.984;2023-04-08T08:56:11;101511.91;;;11.58;27.15
59391;BME280;53405;57.012;40.984;2023-04-08T08:58:43;101500.00;;;11.54;26.48
59391;BME280;53405;57.012;40.984;2023-04-08T09:01:33;101478.06;;;10.89;26.73
59391;BME280;53405;57.012;40.984;2023-04-08T09:04:18;101490.53;;;11.34;27.35
59391;BME280;53405;57.012;40.984;2023-04-08T09:06:48;101491.28;;;11.72;26.61
59391;BME280;53405;57.012;40.984;2023-04-08T09:09:17;101494.94;;;12.07;26.51
59391;BME280;53405;57.012;40.984;2023-04-08T09:11:45;101485.19;;;11.89;26.08
59391;BME280;53405;57.012;40.984;2023-04-08T09:14:17;101476.19;;;11.36;25.95
59391;BME280;53405;57.012;40.984;2023-04-08T09:16:45;101485.06;;;11.08;26.45
59391;BME280;53405;57.012;40.984;2023-04-08T09:19:13;101487.25;;;11.50;26.17
59391;BME280;53405;57.012;40.984;2023-04-08T09:21:40;101482.72;;;12.24;26.20
59391;BME280;53405;57.012;40.984;2023-04-08T09:24:08;101469.13;;;12.89;24.57
59391;BME280;53405;57.012;40.984;2023-04-08T09:26:36;101473.28;;;12.21;26.04
59391;BME280;53405;57.012;40.984;2023-04-08T09:29:05;101469.69;;;12.48;25.68
59391;BME280;53405;57.012;40.984;2023-04-08T09:31:40;101473.38;;;12.56;25.07
59391;BME280;53405;57.012;40.984;2023-04-08T09:34:12;101461.19;;;12.37;24.96
59391;BME280;53405;57.012;40.984;2023-04-08T09:36:41;101485.00;;;12.19;25.35
59391;BME280;53405;57.012;40.984;2023-04-08T09:39:11;101488.19;;;12.48;25.05
59391;BME280;53405;57.012;40.984;2023-04-08T09:41:38;101475.38;;;13.14;23.82
59391;BME280;53405;57.012;40.984;2023-04-08T09:44:07;101472.47;;;13.77;23.46
59391;BME280;53405;57.012;40.984;2023-04-08T09:49:09;101449.47;;;14.18;22.40
59391;BME280;53405;57.012;40.984;2023-04-08T09:51:44;101457.72;;;13.82;22.38
59391;BME280;53405;57.012;40.984;2023-04-08T09:54:18;101454.88;;;13.59;22.33
59391;BME280;53405;57.012;40.984;2023-04-08T09:56:51;101462.75;;;13.43;22.96
59391;BME280;53405;57.012;40.984;2023-04-08T09:59:21;101455.25;;;13.22;23.24
59391;BME280;53405;57.012;40.984;2023-04-08T10:01:53;101453.22;;;13.58;23.16
59391;BME280;53405;57.012;40.984;2023-04-08T10:04:23;101452.13;;;13.26;22.89
59391;BME280;53405;57.012;40.984;2023-04-08T10:07:03;101456.97;;;13.39;22.35
59391;BME280;53405;57.012;40.984;2023-04-08T10:09:33;101452.69;;;13.46;22.73
59391;BME280;53405;57.012;40.984;2023-04-08T10:12:02;101429.22;;;13.51;22.95
59391;BME280;53405;57.012;40.984;2023-04-08T10:14:30;101463.72;;;14.09;23.98
59391;BME280;53405;57.012;40.984;2023-04-08T10:17:23;101453.44;;;14.63;22.36
59391;BME280;53405;57.012;40.984;2023-04-08T10:19:52;101453.84;;;14.92;20.71
59391;BME280;53405;57.012;40.984;2023-04-08T10:22:44;101436.25;;;14.02;21.54
59391;BME280;53405;57.012;40.984;2023-04-08T10:27:44;101440.69;;;13.85;21.97
59391;BME280;53405;57.012;40.984;2023-04-08T10:32:55;101418.16;;;13.56;22.16
59391;BME280;53405;57.012;40.984;2023-04-08T10:35:30;101447.44;;;14.53;21.46
59391;BME280;53405;57.012;40.984;2023-04-08T10:37:59;101423.69;;;15.24;20.73
59391;BME280;53405;57.012;40.984;2023-04-08T10:40:26;101429.75;;;15.41;20.32
59391;BME280;53405;57.012;40.984;2023-04-08T10:42:54;101440.00;;;15.13;20.38
59391;BME280;53405;57.012;40.984;2023-04-08T10:45:23;101437.88;;;15.08;20.47
59391;BME280;53405;57.012;40.984;2023-04-08T10:47:50;101426.78;;;15.05;20.46
59391;BME280;53405;57.012;40.984;2023-04-08T10:50:19;101421.94;;;15.71;20.55
59391;BME280;53405;57.012;40.984;2023-04-08T10:52:54;101431.41;;;16.50;19.90
59391;BME280;53405;57.012;40.984;2023-04-08T10:55:22;101430.44;;;17.47;18.22
59391;BME280;53405;57.012;40.984;2023-04-08T10:57:50;101417.56;;;17.14;18.58
59391;BME280;53405;57.012;40.984;2023-04-08T11:00:18;101424.94;;;16.14;19.40
59391;BME280;53405;57.012;40.984;2023-04-08T11:03:05;101415.34;;;15.35;20.32
59391;BME280;53405;57.012;40.984;2023-04-08T11:05:33;101411.78;;;15.20;20.83
59391;BME280;53405;57.012;40.984;2023-04-08T11:08:01;101402.97;;;15.28;20.47
59391;BME280;53405;57.012;40.984;2023-04-08T11:10:29;101367.81;;;15.49;20.31
59391;BME280;53405;57.012;40.984;2023-04-08T11:12:57;101405.56;;;16.43;20.00
59391;BME280;53405;57.012;40.984;2023-04-08T11:15:24;101394.00;;;16.96;19.71
59391;BME280;53405;57.012;40.984;2023-04-08T11:17:52;101408.84;;;16.75;18.88
59391;BME280;53405;57.012;40.984;2023-04-08T11:20:21;101398.94;;;16.69;19.64
59391;BME280;53405;57.012;40.984;2023-04-08T11:22:49;101412.19;;;16.92;19.07
59391;BME280;53405;57.012;40.984;2023-04-08T11:25:16;101411.25;;;17.37;19.33
59391;BME280;53405;57.012;40.984;2023-04-08T11:27:44;101400.94;;;18.13;18.70
59391;BME280;53405;57.012;40.984;2023-04-08T11:30:13;101393.56;;;18.15;18.06
59391;BME280;53405;57.012;40.984;2023-04-08T11:32:40;101405.00;;;18.09;17.98
59391;BME280;53405;57.012;40.984;2023-04-08T11:35:08;101403.09;;;18.31;17.97
59391;BME280;53405;57.012;40.984;2023-04-08T11:37:40;101393.97;;;18.47;17.98
59391;BME280;53405;57.012;40.984;2023-04-08T11:40:09;101389.09;;;18.22;18.26
59391;BME280;53405;57.012;40.984;2023-04-08T11:42:38;101364.53;;;17.99;17.91
59391;BME280;53405;57.012;40.984;2023-04-08T11:45:12;101394.00;;;16.96;19.50
59391;BME280;53405;57.012;40.984;2023-04-08T11:47:40;101386.56;;;17.43;18.72
59391;BME280;53405;57.012;40.984;2023-04-08T11:50:08;101374.56;;;17.54;18.84
59391;BME280;53405;57.012;40.984;2023-04-08T11:52:46;101376.31;;;18.11;18.85
59391;BME280;53405;57.012;40.984;2023-04-08T11:55:30;101369.06;;;18.33;17.12
59391;BME280;53405;57.012;40.984;2023-04-08T11:58:02;101379.97;;;18.73;17.35
59391;BME280;53405;57.012;40.984;2023-04-08T12:00:30;101374.41;;;19.23;17.62
59391;BME280;53405;57.012;40.984;2023-04-08T12:02:59;101374.25;;;19.38;17.44
59391;BME280;53405;57.012;40.984;2023-04-08T12:05:26;101367.97;;;18.98;17.80
59391;BME280;53405;57.012;40.984;2023-04-08T12:07:53;101372.69;;;18.95;18.55
59391;BME280;53405;57.012;40.984;2023-04-08T12:10:20;101371.13;;;19.21;17.42
59391;BME280;53405;57.012;40.984;2023-04-08T12:12:47;101366.44;;;19.50;17.66
59391;BME280;53405;57.012;40.984;2023-04-08T12:15:15;101355.97;;;19.48;17.54
59391;BME280;53405;57.012;40.984;2023-04-08T12:17:43;101361.13;;;18.82;17.95
59391;BME280;53405;57.012;40.984;2023-04-08T12:20:11;101339.19;;;17.60;18.95
59391;BME280;53405;57.012;40.984;2023-04-08T12:22:38;101346.22;;;16.58;19.60
59391;BME280;53405;57.012;40.984;2023-04-08T12:25:06;101341.47;;;16.38;20.82
59391;BME280;53405;57.012;40.984;2023-04-08T12:27:34;101353.00;;;17.27;20.05
59391;BME280;53405;57.012;40.984;2023-04-08T12:30:02;101310.75;;;17.88;19.21
59391;BME280;53405;57.012;40.984;2023-04-08T12:32:30;101345.19;;;17.90;19.62
59391;BME280;53405;57.012;40.984;2023-04-08T12:34:57;101348.97;;;18.02;19.02
59391;BME280;53405;57.012;40.984;2023-04-08T12:37:24;101344.00;;;17.71;19.32
59391;BME280;53405;57.012;40.984;2023-04-08T12:39:51;101346.84;;;17.48;19.55
59391;BME280;53405;57.012;40.984;2023-04-08T12:42:18;101339.13;;;17.31;20.04
59391;BME280;53405;57.012;40.984;2023-04-08T12:44:46;101339.38;;;17.58;19.67
59391;BME280;53405;57.012;40.984;2023-04-08T12:47:13;101337.53;;;17.37;19.73
59391;BME280;53405;57.012;40.984;2023-04-08T12:49:40;101309.47;;;17.34;19.82
59391;BME280;53405;57.012;40.984;2023-04-08T12:52:14;101330.25;;;17.24;20.22
59391;BME280;53405;57.012;40.984;2023-04-08T12:54:41;101331.13;;;17.10;19.86
59391;BME280;53405;57.012;40.984;2023-04-08T12:57:08;101304.38;;;17.40;19.30
59391;BME280;53405;57.012;40.984;2023-04-08T12:59:35;101320.97;;;17.63;19.41
59391;BME280;53405;57.012;40.984;2023-04-08T13:02:03;101284.28;;;17.87;18.63
59391;BME280;53405;57.012;40.984;2023-04-08T13:04:31;101310.50;;;18.53;18.68
59391;BME280;53405;57.012;40.984;2023-04-08T13:06:58;101316.88;;;18.17;18.80